createdAt,value
2022-12-18T00:03:27.468Z,94.14
2022-12-18T00:13:33.295Z,94.19
2022-12-18T00:23:41.025Z,94.02
2022-12-18T00:33:47.559Z,94.10
2022-12-18T00:43:55.488Z,94.27
2022-12-18T00:53:59.709Z,94.42
2022-12-18T01:04:06.591Z,94.20
2022-12-18T01:14:12.440Z,94.23
2022-12-18T01:24:18.188Z,94.13
2022-12-18T01:34:22.295Z,94.26
2022-12-18T01:44:59.300Z,94.06
2022-12-18T01:55:08.165Z,94.03
2022-12-18T02:05:17.041Z,94.02
2022-12-18T02:15:28.414Z,93.87
2022-12-18T02:25:47.706Z,93.85
2022-12-18T02:35:56.768Z,93.87
2022-12-18T02:46:17.660Z,93.97
2022-12-18T02:56:28.338Z,93.84
2022-12-18T03:06:39.296Z,93.62
2022-12-18T03:16:46.862Z,93.75
2022-12-18T03:26:55.703Z,93.85
2022-12-18T03:37:01.819Z,93.45
2022-12-18T03:47:12.342Z,93.76
2022-12-18T03:57:21.824Z,93.68
2022-12-18T04:07:27.803Z,94.06
2022-12-18T04:17:33.389Z,93.99
2022-12-18T04:27:37.468Z,94.08
2022-12-18T04:37:43.075Z,93.81
2022-12-18T04:47:48.672Z,94.06
2022-12-18T04:57:52.744Z,94.06
2022-12-18T05:07:58.399Z,94.03
2022-12-18T05:18:05.222Z,94.14
2022-12-18T05:28:10.828Z,94.10
2022-12-18T05:38:16.676Z,93.90
2022-12-18T05:48:22.698Z,93.91
2022-12-18T05:58:28.273Z,94.05
2022-12-18T06:08:33.888Z,94.02
2022-12-18T06:18:39.771Z,94.06
2022-12-18T06:28:45.556Z,93.92
2022-12-18T06:38:51.659Z,94.00
2022-12-18T06:48:57.295Z,94.01
2022-12-18T06:59:02.927Z,93.80
2022-12-18T07:09:08.659Z,94.02
2022-12-18T07:19:14.366Z,93.88
2022-12-18T07:29:20.023Z,94.03
2022-12-18T07:39:25.610Z,93.85
2022-12-18T07:49:29.757Z,93.83
2022-12-18T07:59:35.443Z,93.82
2022-12-18T08:09:41.026Z,93.29
2022-12-18T08:19:46.737Z,92.90
2022-12-18T08:29:50.944Z,92.61
2022-12-18T08:39:56.970Z,92.90
2022-12-18T08:50:02.728Z,92.89
2022-12-18T09:00:07.643Z,92.21
2022-12-18T09:10:13.431Z,92.21
2022-12-18T09:20:17.566Z,91.81
2022-12-18T09:30:23.896Z,91.31
2022-12-18T09:40:38.232Z,91.30
2022-12-18T09:50:44.985Z,90.99
2022-12-18T10:00:53.339Z,90.91
2022-12-18T10:11:04.323Z,90.45
2022-12-18T10:21:16.269Z,90.72
2022-12-18T10:31:24.722Z,90.42
2022-12-18T10:41:31.971Z,90.18
2022-12-18T10:51:39.763Z,90.31
2022-12-18T11:01:55.894Z,90.12
2022-12-18T11:12:03.816Z,89.43
2022-12-18T11:22:25.366Z,89.57
2022-12-18T11:32:41.348Z,89.76
2022-12-18T11:42:52.207Z,89.50
2022-12-18T11:53:02.783Z,89.55
2022-12-18T12:03:49.789Z,89.25
2022-12-18T12:14:08.981Z,89.17
2022-12-18T12:24:32.880Z,89.68
2022-12-18T12:34:59.513Z,89.65
2022-12-18T12:45:15.832Z,89.09
2022-12-18T12:55:24.442Z,88.97
2022-12-18T13:05:36.665Z,89.16
2022-12-18T13:15:46.193Z,89.00
2022-12-18T13:25:53.143Z,88.80
2022-12-18T13:36:10.874Z,88.42
2022-12-18T13:46:26.034Z,88.65
2022-12-18T13:56:33.973Z,88.98
2022-12-18T14:06:39.969Z,89.46
2022-12-18T14:16:47.774Z,89.30
2022-12-18T14:26:54.719Z,89.57
2022-12-18T14:37:01.168Z,89.94
2022-12-18T14:47:07.308Z,89.91
2022-12-18T14:57:23.560Z,90.22
2022-12-18T15:07:29.390Z,90.22
2022-12-18T15:17:35.311Z,90.54
2022-12-18T15:27:41.082Z,90.74
2022-12-18T15:37:47.298Z,90.89
2022-12-18T15:47:53.305Z,91.17
2022-12-18T15:58:00.792Z,91.21
2022-12-18T16:08:06.900Z,91.20
2022-12-18T16:18:12.613Z,91.40
2022-12-18T16:28:18.416Z,91.57
2022-12-18T16:38:24.228Z,91.45
2022-12-18T16:48:30.050Z,91.51
2022-12-18T16:58:35.990Z,91.79
2022-12-18T17:08:41.674Z,92.04
2022-12-18T17:18:47.762Z,91.98
2022-12-18T17:28:53.475Z,92.15
2022-12-18T17:39:01.063Z,92.39
2022-12-18T17:49:07.086Z,92.65
2022-12-18T17:59:13.779Z,92.75
2022-12-18T18:09:19.596Z,92.57
2022-12-18T18:19:26.728Z,92.93
2022-12-18T18:29:32.618Z,93.15
2022-12-18T18:39:39.153Z,93.37
2022-12-18T18:49:44.831Z,93.43
2022-12-18T18:59:50.651Z,93.75
2022-12-18T19:09:56.487Z,93.64
2022-12-18T19:20:02.293Z,93.63
2022-12-18T19:30:10.057Z,93.76
2022-12-18T19:40:15.914Z,93.74
2022-12-18T19:50:22.054Z,93.64
2022-12-18T20:00:27.730Z,93.22
2022-12-18T20:10:33.554Z,93.23
2022-12-18T20:20:39.345Z,93.40
2022-12-18T20:30:46.124Z,93.57
2022-12-18T20:40:51.925Z,93.70
2022-12-18T20:51:04.067Z,93.71
2022-12-18T21:01:12.751Z,93.82
2022-12-18T21:11:44.002Z,94.16
2022-12-18T21:21:50.030Z,94.04
2022-12-18T21:31:56.225Z,94.21
2022-12-18T21:42:19.590Z,94.36
2022-12-18T21:52:31.979Z,94.31
2022-12-18T22:02:38.290Z,94.32
2022-12-18T22:12:45.849Z,94.44
2022-12-18T22:22:52.585Z,94.25
2022-12-18T22:32:59.867Z,94.21
2022-12-18T22:43:06.919Z,94.27
2022-12-18T22:53:12.708Z,94.18
2022-12-18T23:03:18.401Z,94.11
2022-12-18T23:13:24.156Z,93.91
2022-12-18T23:23:29.795Z,93.67
2022-12-18T23:33:35.957Z,93.70
2022-12-18T23:43:41.931Z,93.77
2022-12-18T23:53:49.836Z,93.66
